Time,TemperatureF,DewpointF,PressureIn,WindDirection,WindDirectionDegrees,WindSpeedMPH,WindSpeedGustMPH,Humidity,HourlyPrecipIn,Conditions,Clouds,dailyrainin,SoftwareType,DateUTC
2013-08-15 00:12:00,55.0,51.0,30.16,NNW,331,0.0,-999.0,86,-99.99,,,-99.99,,2013-08-15 04:12:00,
2013-08-15 00:23:00,56.0,51.0,30.16,NNW,331,0.0,-999.0,84,-99.99,,,-99.99,,2013-08-15 04:23:00,
2013-08-15 00:52:00,55.0,50.0,30.17,NNW,331,0.0,-999.0,84,-99.99,,,-99.99,,2013-08-15 04:52:00,
2013-08-15 01:12:00,55.0,50.0,30.17,NNW,331,0.0,-999.0,83,-99.99,,,-99.99,,2013-08-15 05:12:00,
2013-08-15 01:22:00,55.0,51.0,30.16,NNW,331,1.0,-999.0,86,-99.99,,,-99.99,,2013-08-15 05:22:00,
2013-08-15 01:52:00,54.0,49.0,30.16,NNW,331,0.0,-999.0,84,-99.99,,,-99.99,,2013-08-15 05:52:00,
2013-08-15 02:21:00,52.0,49.0,30.15,NNW,332,0.0,-999.0,88,-99.99,,,-99.99,,2013-08-15 06:21:00,
2013-08-15 02:52:00,51.0,48.0,30.16,NNW,332,0.0,-999.0,88,-99.99,,,-99.99,,2013-08-15 06:52:00,
2013-08-15 03:21:00,50.0,47.0,30.16,NNW,332,0.0,-999.0,90,-99.99,,,-99.99,,2013-08-15 07:21:00,
2013-08-15 03:52:00,49.0,46.0,30.15,NNW,332,0.0,-999.0,90,-99.99,,,-99.99,,2013-08-15 07:52:00,
2013-08-15 04:11:00,49.0,46.0,30.15,NNW,332,0.0,-999.0,90,-99.99,,,-99.99,,2013-08-15 08:11:00,
2013-08-15 04:21:00,48.0,45.0,30.16,NNW,332,0.0,-999.0,91,-99.99,,,-99.99,,2013-08-15 08:21:00,
2013-08-15 04:52:00,48.0,45.0,30.15,NNW,332,0.0,-999.0,91,-99.99,,,-99.99,,2013-08-15 08:52:00,
2013-08-15 05:11:00,48.0,46.0,30.15,NNW,332,0.0,-999.0,92,-99.99,,,-99.99,,2013-08-15 09:11:00,
2013-08-15 05:21:00,47.0,45.0,30.15,NNW,331,0.0,-999.0,92,-99.99,,,-99.99,,2013-08-15 09:21:00,
2013-08-15 05:53:00,47.0,45.0,30.16,NNW,332,0.0,-999.0,93,-99.99,,,-99.99,,2013-08-15 09:53:00,
2013-08-15 06:12:00,47.0,45.0,30.16,NNW,332,0.0,-999.0,93,-99.99,,,-99.99,,2013-08-15 10:12:00,
2013-08-15 06:22:00,47.0,45.0,30.16,NNW,332,0.0,-999.0,93,-99.99,,,-99.99,,2013-08-15 10:22:00,
2013-08-15 06:52:00,47.0,45.0,30.16,NNW,331,0.0,-999.0,94,-99.99,,,-99.99,,2013-08-15 10:52:00,
2013-08-15 07:12:00,47.0,45.0,30.16,NNW,331,0.0,-999.0,94,-99.99,,,-99.99,,2013-08-15 11:12:00,
2013-08-15 07:22:00,47.0,46.0,30.17,NNW,332,0.0,-999.0,95,-99.99,,,-99.99,,2013-08-15 11:22:00,
2013-08-15 07:52:00,47.0,46.0,30.17,NNW,332,0.0,-999.0,95,-99.99,,,-99.99,,2013-08-15 11:52:00,
2013-08-15 08:11:00,48.0,47.0,30.17,NNW,332,0.0,-999.0,95,-99.99,,,-99.99,,2013-08-15 12:11:00,
2013-08-15 08:21:00,48.0,47.0,30.17,NNW,332,0.0,-999.0,95,-99.99,,,-99.99,,2013-08-15 12:21:00,
2013-08-15 08:52:00,50.0,49.0,30.17,West,271,0.0,-999.0,96,-99.99,,,-99.99,,2013-08-15 12:52:00,
2013-08-15 09:11:00,52.0,51.0,30.17,West,271,0.0,-999.0,97,-99.99,,,-99.99,,2013-08-15 13:11:00,
2013-08-15 09:21:00,53.0,52.0,30.18,West,271,0.0,-999.0,97,-99.99,,,-99.99,,2013-08-15 13:21:00,
2013-08-15 09:52:00,56.0,55.0,30.18,West,271,0.0,-999.0,96,-99.99,,,-99.99,,2013-08-15 13:52:00,
2013-08-15 10:13:00,58.0,57.0,30.18,West,271,0.0,-999.0,95,-99.99,,,-99.99,,2013-08-15 14:13:00,
2013-08-15 10:22:00,60.0,57.0,30.18,West,271,0.0,-999.0,89,-99.99,,,-99.99,,2013-08-15 14:22:00,
2013-08-15 10:56:00,64.0,57.0,30.18,West,271,0.0,-999.0,77,-99.99,,,-99.99,,2013-08-15 14:56:00,
2013-08-15 11:14:00,66.0,57.0,30.18,West,271,0.0,-999.0,73,-99.99,,,-99.99,,2013-08-15 15:14:00,
2013-08-15 11:23:00,67.0,56.0,30.18,West,271,0.0,-999.0,67,-99.99,,,-99.99,,2013-08-15 15:23:00,
2013-08-15 11:54:00,67.0,53.0,30.18,West,261,0.0,-999.0,60,-99.99,,,-99.99,,2013-08-15 15:54:00,
2013-08-15 12:15:00,68.0,55.0,30.18,WSW,254,1.0,-999.0,64,-99.99,,,-99.99,,2013-08-15 16:15:00,
2013-08-15 12:26:00,68.0,54.0,30.17,West,263,2.0,-999.0,60,-99.99,,,-99.99,,2013-08-15 16:26:00,
2013-08-15 12:55:00,68.0,53.0,30.17,West,264,4.0,-999.0,58,-99.99,,,-99.99,,2013-08-15 16:55:00,
2013-08-15 13:18:00,69.0,53.0,30.16,WSW,245,3.0,-999.0,57,-99.99,,,-99.99,,2013-08-15 17:18:00,
2013-08-15 13:31:00,70.0,-99.9,30.16,SW,236,1.0,-999.0,58,-99.99,,,-99.99,,2013-08-15 17:31:00,
2013-08-15 13:55:00,71.0,55.0,30.16,SW,221,3.0,-999.0,57,-99.99,,,-99.99,,2013-08-15 17:55:00,
2013-08-15 14:00:00,-999.0,-99.9,30.16,SW,231,4.0,-999.0,-999,-99.99,,,-99.99,,2013-08-15 18:00:00,
2013-08-15 14:28:00,71.0,56.0,30.15,SW,232,1.0,-999.0,59,-99.99,,,-99.99,,2013-08-15 18:28:00,
2013-08-15 14:36:00,-999.0,-99.9,30.14,SW,231,2.0,-999.0,-999,-99.99,,,-99.99,,2013-08-15 18:36:00,
2013-08-15 15:07:00,-999.0,-99.9,30.14,SW,227,3.0,-999.0,-999,-99.99,,,-99.99,,2013-08-15 19:07:00,
2013-08-15 15:17:00,72.0,55.0,30.13,SW,216,3.0,-999.0,55,-99.99,,,-99.99,,2013-08-15 19:17:00,
2013-08-15 15:34:00,-999.0,-99.9,30.13,SSE,157,3.0,-999.0,-999,-99.99,,,-99.99,,2013-08-15 19:34:00,
2013-08-15 16:13:00,73.0,55.0,30.12,SSE,160,2.0,-999.0,53,-99.99,,,-99.99,,2013-08-15 20:13:00,
2013-08-15 16:33:00,74.0,56.0,30.11,SSE,152,3.0,-999.0,53,-99.99,,,-99.99,,2013-08-15 20:33:00,
2013-08-15 17:04:00,74.0,55.0,30.11,SSE,160,2.0,-999.0,52,-99.99,,,-99.99,,2013-08-15 21:04:00,
2013-08-15 17:17:00,74.0,55.0,30.11,SSE,160,0.0,-999.0,51,-99.99,,,-99.99,,2013-08-15 21:17:00,
2013-08-15 17:40:00,74.0,55.0,30.11,SSE,160,0.0,-999.0,51,-99.99,,,-99.99,,2013-08-15 21:40:00,
2013-08-15 17:57:00,73.0,56.0,30.11,ESE,107,3.0,-999.0,56,-99.99,,,-99.99,,2013-08-15 21:57:00,
2013-08-15 18:29:00,72.0,56.0,30.11,ESE,112,0.0,-999.0,57,-99.99,,,-99.99,,2013-08-15 22:29:00,
2013-08-15 18:58:00,72.0,57.0,30.10,ESE,112,0.0,-999.0,59,-99.99,,,-99.99,,2013-08-15 22:58:00,
2013-08-15 19:35:00,-999.0,-99.9,30.10,ESE,112,0.0,-999.0,59,-99.99,,,-99.99,,2013-08-15 23:35:00,
2013-08-15 19:55:00,71.0,58.0,30.10,ESE,112,0.0,-999.0,64,-99.99,,,-99.99,,2013-08-15 23:55:00,
2013-08-15 20:12:00,70.0,59.0,30.10,ESE,112,0.0,-999.0,67,-99.99,,,-99.99,,2013-08-16 00:12:00,
2013-08-15 20:24:00,70.0,60.0,30.10,ESE,112,0.0,-999.0,71,-99.99,,,-99.99,,2013-08-16 00:24:00,
2013-08-15 20:46:00,69.0,58.0,30.10,ESE,112,0.0,-999.0,68,-99.99,,,-99.99,,2013-08-16 00:46:00,
2013-08-15 20:52:00,68.0,58.0,30.10,ESE,112,0.0,-999.0,71,-99.99,,,-99.99,,2013-08-16 00:52:00,
2013-08-15 21:20:00,67.0,58.0,30.11,ESE,111,0.0,-999.0,72,-99.99,,,-99.99,,2013-08-16 01:20:00,
2013-08-15 21:26:00,65.0,57.0,30.11,ESE,111,0.0,-999.0,75,-99.99,,,-99.99,,2013-08-16 01:26:00,
2013-08-15 21:43:00,-999.0,-99.9,30.11,ESE,111,0.0,-999.0,-999,-99.99,,,-99.99,,2013-08-16 01:43:00,
2013-08-15 21:54:00,63.0,56.0,30.11,ESE,112,0.0,-999.0,78,-99.99,,,-99.99,,2013-08-16 01:54:00,
2013-08-15 22:21:00,61.0,55.0,30.12,ESE,112,0.0,-999.0,80,-99.99,,,-99.99,,2013-08-16 02:21:00,
2013-08-15 22:43:00,60.0,54.0,30.12,ESE,112,0.0,-999.0,82,-99.99,,,-99.99,,2013-08-16 02:43:00,
2013-08-15 22:52:00,59.0,54.0,30.12,ESE,112,0.0,-999.0,83,-99.99,,,-99.99,,2013-08-16 02:52:00,
2013-08-15 23:22:00,58.0,54.0,30.12,ESE,112,0.0,-999.0,85,-99.99,,,-99.99,,2013-08-16 03:22:00,
2013-08-15 23:53:00,57.0,53.0,30.12,ESE,112,0.0,-999.0,86,-99.99,,,-99.99,,2013-08-16 03:53:00,